Time;durP1;ratioP1;P1;durP2;ratioP2;P2;SDS_P1;SDS_P2;PMS_P1;PMS_P2;Temp;Humidity;BMP_temperature;BMP_pressure;BME280_temperature;BME280_humidity;BME280_pressure;Samples;Min_cycle;Max_cycle;Signal;HPM_P1;HPM_P2
2021/04/29 00:01:09;;;;;;;28.98;22.25;;;19.20;99.90;;;;;;4935518;29;20059;-66
2021/04/29 00:03:36;;;;;;;27.58;22.60;;;19.30;99.90;;;;;;4932027;29;20040;-64
2021/04/29 00:06:04;;;;;;;28.35;21.35;;;19.00;99.90;;;;;;4911487;29;20103;-66
2021/04/29 00:08:33;;;;;;;25.33;21.48;;;19.10;99.90;;;;;;4929571;29;20031;-66
2021/04/29 00:11:01;;;;;;;29.63;21.10;;;19.00;99.90;;;;;;4933345;29;20040;-66
2021/04/29 00:13:28;;;;;;;25.45;21.20;;;19.20;99.90;;;;;;4927912;29;20032;-66
2021/04/29 00:15:55;;;;;;;27.55;20.05;;;19.40;99.90;;;;;;4932616;29;20044;-66
2021/04/29 00:18:23;;;;;;;25.63;20.15;;;19.80;99.90;;;;;;4933463;29;20039;-66
2021/04/29 00:20:57;;;;;;;28.50;21.25;;;19.80;99.90;;;;;;4934181;29;20504;-66
2021/04/29 00:23:29;;;;;;;25.30;20.42;;;19.60;99.90;;;;;;4921859;29;20039;-66
2021/04/29 00:25:57;;;;;;;25.58;18.92;;;19.60;99.90;;;;;;4933041;29;20034;-65
2021/04/29 00:28:24;;;;;;;28.10;21.02;;;20.00;99.90;;;;;;4944193;29;20463;-66
2021/04/29 00:30:52;;;;;;;23.80;19.15;;;19.60;99.90;;;;;;4951215;29;20100;-66
2021/04/29 00:33:19;;;;;;;23.20;16.35;;;19.90;99.90;;;;;;4946756;29;20073;-66
2021/04/29 00:35:46;;;;;;;22.95;18.70;;;20.30;99.90;;;;;;4916579;29;20036;-66
2021/04/29 00:38:16;;;;;;;20.88;16.83;;;20.50;99.90;;;;;;4908491;29;20075;-66
2021/04/29 00:40:44;;;;;;;22.00;16.00;;;20.40;99.90;;;;;;4935473;29;20032;-67
2021/04/29 00:43:12;;;;;;;21.45;16.10;;;20.30;99.90;;;;;;4926783;29;20143;-66
2021/04/29 00:45:40;;;;;;;20.02;15.43;;;20.60;99.90;;;;;;4927684;29;20044;-66
2021/04/29 00:48:08;;;;;;;16.63;13.68;;;20.70;99.90;;;;;;4930525;29;20043;-66
2021/04/29 00:50:35;;;;;;;21.20;15.35;;;20.90;99.90;;;;;;4931085;29;20127;-65
2021/04/29 00:53:03;;;;;;;19.75;14.70;;;20.90;99.90;;;;;;4930335;29;20050;-66
2021/04/29 00:55:30;;;;;;;17.75;12.43;;;20.40;99.90;;;;;;4931203;29;20047;-66
2021/04/29 00:57:57;;;;;;;16.85;11.45;;;20.20;99.90;;;;;;4932166;29;20039;-66
2021/04/29 01:00:26;;;;;;;23.63;13.65;;;20.50;99.90;;;;;;4929066;29;20206;-66
2021/04/29 01:03:23;;;;;;;16.85;12.02;;;20.60;99.90;;;;;;4929148;29;20409;-66
2021/04/29 01:06:01;;;;;;;20.33;13.20;;;20.30;99.90;;;;;;4906834;29;20048;-66
2021/04/29 01:08:53;;;;;;;15.35;12.27;;;20.40;99.90;;;;;;4925330;29;20035;-65
2021/04/29 01:11:24;;;;;;;17.05;11.05;;;20.80;99.90;;;;;;4911897;29;20043;-66
2021/04/29 01:13:55;;;;;;;16.85;9.43;;;21.10;99.90;;;;;;4928531;29;20512;-65
2021/04/29 01:16:24;;;;;;;15.70;10.90;;;21.50;99.90;;;;;;4932275;29;20059;-65
2021/04/29 01:18:56;;;;;;;10.85;8.75;;;21.20;99.90;;;;;;4930375;29;20044;-66
2021/04/29 01:21:27;;;;;;;13.63;10.35;;;21.50;99.90;;;;;;4932751;29;20519;-66
2021/04/29 01:24:09;;;;;;;10.55;9.45;;;21.10;99.90;;;;;;4931714;29;20087;-65
2021/04/29 01:27:01;;;;;;;12.73;9.30;;;21.10;99.90;;;;;;4930207;29;20039;-66
2021/04/29 01:29:32;;;;;;;14.57;9.38;;;20.90;99.90;;;;;;4929700;29;20064;-66
2021/04/29 01:32:00;;;;;;;11.95;9.00;;;21.50;99.90;;;;;;4934116;29;20032;-66
2021/04/29 01:34:31;;;;;;;12.75;8.00;;;21.80;99.90;;;;;;4935209;29;20123;-67
2021/04/29 01:36:58;;;;;;;11.13;7.85;;;22.00;99.90;;;;;;4927273;29;20040;-66
2021/04/29 01:39:27;;;;;;;30.10;15.73;;;22.10;99.90;;;;;;4934073;29;20512;-66
2021/04/29 01:41:55;;;;;;;9.20;7.38;;;21.80;99.90;;;;;;4920267;29;20429;-66
2021/04/29 01:44:24;;;;;;;10.35;6.82;;;21.40;99.90;;;;;;4935363;29;20083;-66
2021/04/29 01:46:53;;;;;;;8.35;6.78;;;21.60;99.90;;;;;;4936851;29;20063;-66
2021/04/29 01:49:21;;;;;;;9.98;6.47;;;21.90;99.90;;;;;;4938233;29;20553;-66
2021/04/29 01:51:50;;;;;;;8.20;5.32;;;22.20;99.90;;;;;;4933507;29;20046;-66
2021/04/29 01:54:18;;;;;;;10.20;6.38;;;22.30;99.90;;;;;;4934998;29;20040;-66
2021/04/29 01:56:45;;;;;;;7.45;5.15;;;22.40;99.90;;;;;;4936617;29;20087;-66
2021/04/29 01:59:14;;;;;;;7.65;5.95;;;22.60;99.90;;;;;;4934083;29;20098;-65
2021/04/29 02:01:43;;;;;;;8.65;5.80;;;22.70;99.90;;;;;;4936680;29;20091;-66
2021/04/29 02:04:12;;;;;;;11.65;6.07;;;22.80;99.90;;;;;;4933254;29;20040;-66
2021/04/29 02:06:44;;;;;;;9.13;5.43;;;23.00;99.90;;;;;;4933316;29;20086;-66
2021/04/29 02:09:12;;;;;;;10.30;6.03;;;23.10;99.90;;;;;;4934518;29;20067;-67
2021/04/29 02:12:08;;;;;;;10.38;5.38;;;22.90;99.90;;;;;;4933856;29;20030;-67
2021/04/29 02:14:42;;;;;;;12.25;5.80;;;22.70;99.90;;;;;;4922593;29;20052;-67
2021/04/29 02:17:51;;;;;;;11.10;6.60;;;22.40;99.90;;;;;;4930616;29;20043;-67
2021/04/29 02:20:22;;;;;;;11.35;6.88;;;22.60;99.90;;;;;;4934893;29;20040;-66
2021/04/29 02:22:50;;;;;;;11.13;5.97;;;22.30;99.90;;;;;;4927103;29;20036;-67
2021/04/29 02:25:22;;;;;;;7.78;5.90;;;22.80;99.90;;;;;;4933203;29;20110;-67
2021/04/29 02:27:49;;;;;;;9.93;5.57;;;22.70;99.90;;;;;;4936140;29;20449;-67
2021/04/29 02:30:18;;;;;;;9.70;4.65;;;22.80;99.90;;;;;;4930184;29;20036;-67
2021/04/29 02:32:46;;;;;;;8.00;3.90;;;23.10;99.90;;;;;;4934413;29;20054;-67
2021/04/29 02:35:16;;;;;;;5.65;3.80;;;23.10;99.90;;;;;;4928933;29;20591;-67
2021/04/29 02:37:45;;;;;;;6.20;3.08;;;23.00;99.90;;;;;;4932595;29;20569;-67
2021/04/29 02:40:15;;;;;;;7.45;3.08;;;23.30;99.90;;;;;;4931593;29;20520;-67
2021/04/29 02:42:43;;;;;;;6.30;2.80;;;22.90;99.90;;;;;;4931897;29;20067;-67
2021/04/29 02:45:12;;;;;;;7.90;3.17;;;23.00;99.90;;;;;;4933755;29;20512;-67
2021/04/29 02:47:41;;;;;;;5.35;3.95;;;23.30;99.90;;;;;;4917863;29;20511;-67
2021/04/29 02:50:14;;;;;;;7.15;2.47;;;23.20;99.90;;;;;;4933046;29;20044;-67
2021/04/29 02:52:44;;;;;;;5.45;2.63;;;23.00;99.90;;;;;;4927069;29;20104;-67
2021/04/29 02:55:13;;;;;;;5.10;2.00;;;23.20;99.90;;;;;;4931705;29;20035;-67
2021/04/29 02:57:41;;;;;;;8.55;3.13;;;22.70;99.90;;;;;;4933329;29;20370;-67
2021/04/29 03:00:13;;;;;;;5.65;2.47;;;23.00;99.90;;;;;;4929107;29;20032;-67
2021/04/29 03:02:41;;;;;;;4.32;2.38;;;23.30;99.90;;;;;;4929622;29;20370;-67
2021/04/29 03:05:11;;;;;;;2.85;2.15;;;23.00;99.90;;;;;;4930085;29;20051;-67
2021/04/29 03:07:40;;;;;;;5.38;2.45;;;22.80;99.90;;;;;;4926669;29;20123;-67
2021/04/29 03:10:11;;;;;;;5.68;2.30;;;22.40;99.90;;;;;;4936413;29;20111;-66
2021/04/29 03:12:40;;;;;;;4.55;2.35;;;21.90;99.90;;;;;;4931866;29;20142;-67
2021/04/29 03:15:09;;;;;;;3.13;2.30;;;22.40;99.90;;;;;;4932145;29;20035;-67
2021/04/29 03:17:37;;;;;;;7.15;2.75;;;22.20;99.90;;;;;;4933272;29;20047;-67
2021/04/29 03:20:06;;;;;;;14.27;3.50;;;22.30;99.90;;;;;;4929928;29;20063;-67
2021/04/29 03:22:33;;;;;;;6.50;2.75;;;22.40;99.90;;;;;;4932057;29;21901;-67
2021/04/29 03:25:01;;;;;;;5.57;2.13;;;22.60;99.90;;;;;;4933769;29;20039;-67
2021/04/29 03:27:28;;;;;;;5.95;2.90;;;22.00;99.90;;;;;;4919518;29;20063;-67
2021/04/29 03:29:56;;;;;;;5.72;2.53;;;21.90;99.90;;;;;;4935072;29;20127;-67
2021/04/29 03:32:24;;;;;;;4.25;3.03;;;21.70;99.90;;;;;;4922517;29;20044;-67
2021/04/29 03:34:52;;;;;;;7.05;2.92;;;21.60;99.90;;;;;;4916252;29;20074;-67
2021/04/29 03:37:20;;;;;;;5.35;2.50;;;21.70;99.90;;;;;;4936279;29;20032;-67
2021/04/29 03:39:47;;;;;;;9.73;3.33;;;21.70;99.90;;;;;;4934470;29;20138;-67
2021/04/29 03:42:14;;;;;;;8.23;3.47;;;22.00;99.90;;;;;;4936331;29;20062;-67
2021/04/29 03:44:42;;;;;;;5.45;2.95;;;21.80;99.90;;;;;;4934830;29;20047;-67
2021/04/29 03:47:09;;;;;;;5.97;2.72;;;22.00;99.90;;;;;;4936292;29;20036;-66
2021/04/29 03:49:36;;;;;;;5.50;2.67;;;22.00;99.90;;;;;;4915546;29;20058;-67
2021/04/29 03:52:04;;;;;;;9.85;3.33;;;21.70;99.90;;;;;;4933821;29;20032;-67
2021/04/29 03:54:31;;;;;;;5.72;2.53;;;21.70;99.90;;;;;;4917906;29;20090;-67
2021/04/29 03:56:59;;;;;;;6.75;2.85;;;21.70;99.90;;;;;;4933665;29;20044;-67
2021/04/29 03:59:26;;;;;;;5.57;2.83;;;21.80;99.90;;;;;;4934354;29;20043;-66
2021/04/29 04:01:53;;;;;;;5.40;2.75;;;21.60;99.90;;;;;;4936341;29;20046;-67
2021/04/29 04:04:21;;;;;;;6.00;3.20;;;21.60;99.90;;;;;;4918301;29;20493;-67
2021/04/29 04:06:48;;;;;;;6.78;3.28;;;21.40;99.90;;;;;;4931933;29;20401;-67
2021/04/29 04:09:15;;;;;;;4.13;3.00;;;21.50;99.90;;;;;;4932634;29;20130;-67
2021/04/29 04:11:43;;;;;;;5.93;3.70;;;21.80;99.90;;;;;;4936242;29;20035;-66
2021/04/29 04:14:10;;;;;;;3.92;3.40;;;21.80;99.90;;;;;;4932386;29;20042;-66
2021/04/29 04:16:37;;;;;;;4.15;3.80;;;21.40;99.90;;;;;;4930328;29;20039;-67
2021/04/29 04:19:05;;;;;;;4.85;3.20;;;21.30;99.90;;;;;;4925535;29;20436;-67
2021/04/29 04:21:32;;;;;;;5.88;4.18;;;21.30;99.90;;;;;;4936080;29;20031;-67
2021/04/29 04:23:59;;;;;;;7.00;4.25;;;21.60;99.90;;;;;;4930562;29;20489;-66
2021/04/29 04:26:26;;;;;;;4.95;3.72;;;21.70;99.90;;;;;;4935505;29;20032;-67
2021/04/29 04:28:54;;;;;;;7.15;4.32;;;21.60;99.90;;;;;;4901376;29;20032;-67
2021/04/29 04:31:21;;;;;;;5.10;4.30;;;21.20;99.90;;;;;;4915693;29;20063;-67
2021/04/29 04:33:50;;;;;;;7.15;4.10;;;21.10;99.90;;;;;;4916877;29;20048;-67
2021/04/29 04:36:19;;;;;;;6.13;3.97;;;21.10;99.90;;;;;;4918690;29;20096;-67
2021/04/29 04:38:46;;;;;;;4.43;3.83;;;21.10;99.90;;;;;;4933872;29;20050;-67
2021/04/29 04:41:13;;;;;;;8.25;4.53;;;21.10;99.90;;;;;;4935674;29;20035;-67
2021/04/29 04:43:40;;;;;;;5.70;4.43;;;21.00;99.90;;;;;;4932521;29;20032;-67
2021/04/29 04:46:08;;;;;;;6.40;4.50;;;20.80;99.90;;;;;;4932066;29;20035;-66
2021/04/29 04:48:35;;;;;;;6.78;3.47;;;20.80;99.90;;;;;;4928077;29;20404;-67
2021/04/29 04:51:03;;;;;;;6.10;3.75;;;20.80;99.90;;;;;;4934727;29;20036;-67
2021/04/29 04:53:30;;;;;;;6.43;4.00;;;20.70;99.90;;;;;;4915616;29;20044;-67
2021/04/29 04:55:57;;;;;;;10.30;4.20;;;20.70;99.90;;;;;;4914790;29;20055;-67
2021/04/29 04:58:25;;;;;;;6.30;4.03;;;20.70;99.90;;;;;;4923596;29;20058;-69
2021/04/29 05:00:52;;;;;;;6.47;4.60;;;20.60;99.90;;;;;;4916731;29;20068;-68
2021/04/29 05:03:20;;;;;;;7.80;4.60;;;20.50;99.90;;;;;;4932953;29;20051;-68
2021/04/29 05:05:47;;;;;;;8.82;4.57;;;20.50;99.90;;;;;;4934036;29;20054;-68
2021/04/29 05:08:15;;;;;;;10.77;4.85;;;20.50;99.90;;;;;;4918322;29;20102;-67
2021/04/29 05:10:42;;;;;;;6.47;4.53;;;20.50;99.90;;;;;;4933681;29;20036;-68
2021/04/29 05:13:09;;;;;;;5.95;4.72;;;20.40;99.90;;;;;;4919065;29;20498;-67
2021/04/29 05:15:37;;;;;;;5.90;4.28;;;20.40;99.90;;;;;;4936555;29;20036;-67
2021/04/29 05:18:05;;;;;;;5.30;3.90;;;20.40;99.90;;;;;;4934909;29;20039;-68
2021/04/29 05:20:34;;;;;;;9.20;5.05;;;20.20;99.90;;;;;;4916853;29;20040;-68
2021/04/29 05:23:03;;;;;;;7.07;4.10;;;20.20;99.90;;;;;;4918640;29;20137;-68
2021/04/29 05:25:30;;;;;;;5.22;4.72;;;20.10;99.90;;;;;;4901800;29;20036;-68
2021/04/29 05:28:04;;;;;;;6.50;4.68;;;20.10;99.90;;;;;;4927487;29;20046;-68
2021/04/29 05:30:31;;;;;;;;;;;20.20;99.90;;;;;;4919793;29;20412;-68
2021/04/29 05:32:58;;;;;;;5.32;4.28;;;20.10;99.90;;;;;;4935624;29;19922;-68
2021/04/29 05:35:26;;;;;;;7.50;4.35;;;20.00;99.90;;;;;;4920450;29;20072;-68
2021/04/29 05:37:53;;;;;;;8.98;4.10;;;20.00;99.90;;;;;;4937386;29;20095;-67
2021/04/29 05:40:20;;;;;;;5.95;3.78;;;19.90;99.90;;;;;;4935765;29;20035;-68
2021/04/29 05:42:48;;;;;;;6.47;4.18;;;19.80;99.90;;;;;;4939083;29;20055;-67
2021/04/29 05:45:15;;;;;;;7.45;3.95;;;19.90;99.90;;;;;;4917706;29;20114;-68
2021/04/29 05:47:43;;;;;;;5.25;3.70;;;19.80;99.90;;;;;;4932461;29;20525;-68
2021/04/29 05:50:11;;;;;;;4.68;3.78;;;19.80;99.90;;;;;;4919583;29;20046;-67
2021/04/29 05:52:39;;;;;;;6.13;3.33;;;19.70;99.90;;;;;;4937142;29;20123;-67
2021/04/29 05:55:08;;;;;;;5.22;3.42;;;19.70;99.90;;;;;;4934707;29;20035;-68
2021/04/29 05:57:36;;;;;;;5.63;3.85;;;19.60;99.90;;;;;;4920277;29;20485;-67
2021/04/29 06:00:10;;;;;;;5.72;3.15;;;19.60;99.90;;;;;;4935570;29;20069;-68
2021/04/29 06:02:37;;;;;;;5.68;3.08;;;19.60;99.90;;;;;;4937424;29;20437;-68
2021/04/29 06:05:05;;;;;;;5.30;3.22;;;19.70;99.90;;;;;;4918470;29;20393;-68
2021/04/29 06:07:32;;;;;;;4.97;3.70;;;19.60;99.90;;;;;;4920058;29;20126;-68
2021/04/29 06:09:59;;;;;;;9.85;3.67;;;19.60;99.90;;;;;;4935466;29;20050;-68
2021/04/29 06:12:27;;;;;;;5.05;3.25;;;19.60;99.90;;;;;;4936967;29;20099;-68
2021/04/29 06:14:54;;;;;;;4.88;3.50;;;19.60;99.90;;;;;;4932656;29;20035;-68
2021/04/29 06:17:21;;;;;;;5.63;3.47;;;19.50;99.90;;;;;;4919826;29;20055;-68
2021/04/29 06:19:48;;;;;;;4.50;3.08;;;19.50;99.90;;;;;;4918586;29;20500;-68
2021/04/29 06:22:16;;;;;;;6.10;3.10;;;19.50;99.90;;;;;;4918634;29;20601;-67
2021/04/29 06:24:43;;;;;;;4.15;3.22;;;19.40;99.90;;;;;;4919257;29;20344;-68
2021/04/29 06:27:11;;;;;;;5.45;3.58;;;19.40;99.90;;;;;;4935365;29;20501;-68
2021/04/29 06:29:38;;;;;;;5.43;3.50;;;19.30;99.90;;;;;;4935136;29;20095;-68
2021/04/29 06:32:05;;;;;;;7.57;3.63;;;19.30;99.90;;;;;;4919857;29;20445;-68
2021/04/29 06:34:33;;;;;;;4.95;3.67;;;19.30;99.90;;;;;;4933057;29;20032;-68
2021/04/29 06:37:01;;;;;;;4.15;3.22;;;19.20;99.90;;;;;;4908580;29;20036;-68
2021/04/29 06:39:29;;;;;;;4.20;3.15;;;19.20;99.90;;;;;;4917978;29;20127;-68
2021/04/29 06:41:57;;;;;;;3.95;3.20;;;19.10;99.90;;;;;;4923091;29;20047;-68
2021/04/29 06:44:24;;;;;;;6.13;3.92;;;19.10;99.90;;;;;;4918874;29;20074;-68
2021/04/29 06:46:51;;;;;;;3.83;3.28;;;19.00;99.90;;;;;;4936131;29;20063;-68
2021/04/29 06:49:19;;;;;;;4.60;3.78;;;19.00;99.90;;;;;;4934555;29;20059;-68
2021/04/29 06:51:46;;;;;;;4.70;3.38;;;19.00;99.90;;;;;;4936467;29;20075;-68
2021/04/29 06:54:13;;;;;;;4.15;2.88;;;19.00;99.90;;;;;;4930256;29;20044;-67
2021/04/29 06:56:41;;;;;;;7.35;3.97;;;19.00;99.90;;;;;;4936797;29;20388;-68
2021/04/29 06:59:08;;;;;;;3.85;3.45;;;18.90;99.90;;;;;;4916433;29;20046;-67
2021/04/29 07:01:35;;;;;;;5.60;3.40;;;18.90;99.90;;;;;;4914719;29;20582;-68
2021/04/29 07:04:03;;;;;;;7.07;3.55;;;18.80;99.90;;;;;;4931641;29;20119;-68
2021/04/29 07:06:31;;;;;;;5.63;3.55;;;18.80;99.90;;;;;;4933267;29;20049;-68
2021/04/29 07:09:02;;;;;;;4.65;3.03;;;18.70;99.90;;;;;;4933648;29;20036;-67
2021/04/29 07:11:30;;;;;;;4.95;3.28;;;18.70;99.90;;;;;;4935223;29;20036;-67
2021/04/29 07:13:58;;;;;;;5.95;3.67;;;18.70;99.90;;;;;;4930021;29;20130;-67
2021/04/29 07:16:26;;;;;;;5.68;3.50;;;18.60;99.90;;;;;;4917345;29;20409;-67
2021/04/29 07:18:54;;;;;;;6.07;3.95;;;18.60;99.90;;;;;;4922788;29;20036;-67
2021/04/29 07:21:21;;;;;;;5.68;3.90;;;18.60;99.90;;;;;;4936244;29;20084;-67
2021/04/29 07:23:49;;;;;;;5.75;3.90;;;18.60;99.90;;;;;;4934290;29;20408;-67
2021/04/29 07:26:17;;;;;;;7.40;4.15;;;18.60;99.90;;;;;;4935543;29;20028;-68
2021/04/29 07:28:45;;;;;;;5.30;3.63;;;18.60;99.90;;;;;;4932304;29;20111;-68
2021/04/29 07:31:13;;;;;;;5.22;3.58;;;18.50;99.90;;;;;;4912173;29;20099;-68
2021/04/29 07:33:41;;;;;;;5.43;3.60;;;18.40;99.90;;;;;;4933475;29;20058;-68
2021/04/29 07:36:09;;;;;;;7.50;3.03;;;18.40;99.90;;;;;;4936158;29;20036;-68
2021/04/29 07:38:36;;;;;;;5.72;3.50;;;18.40;99.90;;;;;;4934723;29;20044;-67
2021/04/29 07:41:05;;;;;;;3.83;3.30;;;18.40;99.90;;;;;;4917036;29;20039;-67
2021/04/29 07:43:32;;;;;;;3.80;3.00;;;18.40;99.90;;;;;;4934021;29;20048;-68
2021/04/29 07:46:00;;;;;;;5.00;3.25;;;18.40;99.90;;;;;;4918418;29;20039;-68
2021/04/29 07:48:28;;;;;;;6.72;3.55;;;18.30;99.90;;;;;;4915629;29;20404;-68
2021/04/29 07:50:55;;;;;;;5.35;3.25;;;18.30;99.90;;;;;;4934045;29;20043;-68
2021/04/29 07:53:23;;;;;;;6.63;3.42;;;18.30;99.90;;;;;;4927793;29;20102;-68
2021/04/29 07:55:50;;;;;;;6.35;3.53;;;18.40;99.90;;;;;;4934038;29;20052;-68
2021/04/29 07:58:17;;;;;;;3.88;2.88;;;18.40;99.90;;;;;;4932106;29;20473;-68
2021/04/29 08:00:45;;;;;;;5.60;3.10;;;18.40;99.90;;;;;;4918688;29;20209;-68
2021/04/29 08:03:12;;;;;;;6.35;4.10;;;18.40;99.90;;;;;;4933617;29;20264;-67
2021/04/29 08:05:39;;;;;;;5.32;3.35;;;18.30;99.90;;;;;;4931165;29;20036;-67
2021/04/29 08:08:06;;;;;;;6.63;3.58;;;18.30;99.90;;;;;;4916366;29;20449;-68
2021/04/29 08:10:35;;;;;;;4.60;3.13;;;18.30;99.90;;;;;;4935439;29;20401;-67
2021/04/29 08:13:02;;;;;;;5.38;3.40;;;18.30;99.90;;;;;;4932696;29;20579;-68
2021/04/29 08:15:29;;;;;;;5.07;3.65;;;18.20;99.90;;;;;;4914052;29;20122;-68
2021/04/29 08:17:56;;;;;;;5.93;3.80;;;18.30;99.90;;;;;;4932275;29;20044;-68
2021/04/29 08:20:24;;;;;;;6.20;3.80;;;18.30;99.90;;;;;;4915741;29;20039;-68
2021/04/29 08:22:51;;;;;;;6.85;3.88;;;18.30;99.90;;;;;;4930875;29;20043;-67
2021/04/29 08:25:18;;;;;;;9.95;6.25;;;18.30;99.90;;;;;;4914601;29;20038;-68
2021/04/29 08:27:46;;;;;;;13.55;7.82;;;18.30;99.90;;;;;;4934794;29;20111;-68
2021/04/29 08:30:13;;;;;;;8.20;5.57;;;18.20;99.90;;;;;;4916281;29;20035;-68
2021/04/29 08:32:41;;;;;;;10.02;5.40;;;18.20;99.90;;;;;;4934997;29;20051;-68
2021/04/29 08:35:09;;;;;;;13.60;5.90;;;18.30;99.90;;;;;;4916422;29;20044;-68
2021/04/29 08:37:36;;;;;;;14.75;11.05;;;18.30;99.90;;;;;;4935883;29;20060;-68
2021/04/29 08:40:04;;;;;;;16.05;14.38;;;18.30;99.90;;;;;;4938243;29;20139;-68
2021/04/29 08:42:32;;;;;;;16.58;11.88;;;18.20;99.90;;;;;;4938404;29;20059;-68
2021/04/29 08:44:59;;;;;;;14.30;9.50;;;18.20;99.90;;;;;;4937291;29;20055;-68
2021/04/29 08:47:26;;;;;;;21.27;19.23;;;18.10;99.90;;;;;;4936195;29;20126;-67
2021/04/29 08:49:54;;;;;;;12.57;7.55;;;18.20;99.90;;;;;;4936798;29;20046;-68
2021/04/29 08:52:21;;;;;;;9.35;6.25;;;18.20;99.90;;;;;;4937571;29;20051;-68
2021/04/29 08:54:49;;;;;;;5.20;3.85;;;18.20;99.90;;;;;;4934397;29;20122;-68
2021/04/29 08:57:16;;;;;;;5.05;3.42;;;18.20;99.90;;;;;;4918805;29;20043;-68
2021/04/29 08:59:43;;;;;;;5.43;2.80;;;18.10;99.90;;;;;;4917744;29;20378;-68
2021/04/29 09:02:11;;;;;;;5.55;2.58;;;18.10;99.90;;;;;;4938173;29;20039;-68
2021/04/29 09:04:43;;;;;;;6.50;3.17;;;18.20;99.90;;;;;;4919680;29;20484;-68
2021/04/29 09:07:18;;;;;;;3.90;1.80;;;18.20;99.90;;;;;;4937921;29;20059;-68
2021/04/29 09:09:46;;;;;;;4.18;2.47;;;18.20;99.90;;;;;;4936487;29;20032;-68
2021/04/29 09:12:14;;;;;;;6.15;2.40;;;18.20;99.90;;;;;;4919802;29;20360;-68
2021/04/29 09:14:43;;;;;;;7.60;2.35;;;18.20;99.90;;;;;;4934865;29;20153;-68
2021/04/29 09:17:11;;;;;;;3.60;2.03;;;18.20;99.90;;;;;;4919387;29;20055;-68
2021/04/29 09:19:48;;;;;;;5.03;2.00;;;18.20;99.90;;;;;;4935017;29;20135;-68
2021/04/29 09:22:19;;;;;;;3.10;2.17;;;18.10;99.90;;;;;;4929686;29;20035;-68
2021/04/29 09:24:47;;;;;;;4.05;2.20;;;18.10;99.90;;;;;;4935790;29;20046;-68
2021/04/29 09:27:15;;;;;;;4.75;2.25;;;18.10;99.90;;;;;;4937865;29;20035;-68
2021/04/29 09:30:04;;;;;;;7.30;2.65;;;18.00;99.90;;;;;;4936441;29;20054;-68
2021/04/29 09:32:34;;;;;;;4.57;2.60;;;18.00;99.90;;;;;;4936152;29;20036;-68
2021/04/29 09:35:06;;;;;;;3.92;2.13;;;18.00;99.90;;;;;;4935831;29;20036;-68
2021/04/29 09:37:36;;;;;;;5.90;2.42;;;18.00;99.90;;;;;;4919891;29;20569;-68
2021/04/29 09:40:20;;;;;;;5.13;3.15;;;18.00;99.90;;;;;;4936153;29;20047;-68
2021/04/29 09:42:49;;;;;;;5.03;2.50;;;17.90;99.90;;;;;;4937659;29;20051;-68
2021/04/29 09:45:24;;;;;;;6.18;3.08;;;17.80;99.90;;;;;;4935873;29;20110;-68
2021/04/29 09:48:01;;;;;;;6.53;3.30;;;17.80;99.90;;;;;;4919693;29;20040;-68
2021/04/29 09:50:31;;;;;;;7.43;3.50;;;17.70;99.90;;;;;;4910004;29;20031;-68
2021/04/29 09:53:09;;;;;;;9.50;4.28;;;17.70;99.90;;;;;;4934034;29;20087;-68
2021/04/29 09:55:40;;;;;;;7.55;5.00;;;17.70;99.90;;;;;;4935501;29;20040;-68
2021/04/29 09:58:16;;;;;;;9.63;4.70;;;17.70;99.90;;;;;;4933811;29;20035;-68
2021/04/29 10:00:52;;;;;;;8.82;5.03;;;17.70;99.90;;;;;;4937072;29;20528;-68
2021/04/29 10:03:21;;;;;;;10.32;5.60;;;17.60;99.90;;;;;;4921278;29;20055;-67
2021/04/29 10:05:53;;;;;;;11.88;4.72;;;17.60;99.90;;;;;;4937295;29;20130;-68
2021/04/29 10:08:26;;;;;;;9.95;6.47;;;17.60;99.90;;;;;;4930535;29;20039;-68
2021/04/29 10:10:57;;;;;;;9.52;5.72;;;17.80;99.90;;;;;;4932040;29;20038;-68
2021/04/29 10:13:31;;;;;;;13.98;10.90;;;17.90;99.90;;;;;;4930837;29;20532;-67
2021/04/29 10:15:59;;;;;;;18.13;13.90;;;17.70;99.90;;;;;;4919034;29;20028;-68
2021/04/29 10:18:28;;;;;;;15.07;11.43;;;17.70;99.90;;;;;;4937123;29;20043;-68
2021/04/29 10:21:00;;;;;;;18.40;12.70;;;17.60;99.90;;;;;;4937092;29;20036;-68
2021/04/29 10:23:32;;;;;;;12.02;7.00;;;17.50;99.90;;;;;;4931838;29;20051;-68
2021/04/29 10:26:01;;;;;;;11.20;6.78;;;17.50;99.90;;;;;;4919931;29;20138;-68
2021/04/29 10:28:44;;;;;;;6.53;3.88;;;17.50;99.90;;;;;;4936466;29;20036;-68
2021/04/29 10:31:22;;;;;;;6.10;2.72;;;17.50;99.90;;;;;;4935604;29;20389;-68
2021/04/29 10:33:56;;;;;;;9.30;4.80;;;17.50;99.90;;;;;;4919176;29;20047;-68
2021/04/29 10:36:37;;;;;;;7.60;3.58;;;17.40;99.90;;;;;;4936515;29;20111;-68
2021/04/29 10:39:10;;;;;;;7.80;4.80;;;17.40;99.90;;;;;;4927982;29;20035;-68
2021/04/29 10:41:38;;;;;;;7.35;4.15;;;17.40;99.90;;;;;;4935778;29;20054;-68
2021/04/29 10:44:21;;;;;;;6.20;3.83;;;17.40;99.90;;;;;;4936474;29;20051;-69
2021/04/29 10:47:00;;;;;;;9.40;4.82;;;17.50;99.90;;;;;;4936401;29;20032;-67
2021/04/29 10:49:31;;;;;;;10.98;6.18;;;17.50;99.90;;;;;;4930031;29;20047;-68
2021/04/29 10:52:01;;;;;;;7.90;5.13;;;17.50;99.90;;;;;;4936791;29;20039;-69
2021/04/29 10:54:30;;;;;;;6.65;4.25;;;17.50;99.90;;;;;;4936309;29;20036;-68
2021/04/29 10:57:13;;;;;;;8.57;6.25;;;17.50;99.90;;;;;;4935930;29;20528;-69
2021/04/29 10:59:53;;;;;;;10.75;5.50;;;17.50;99.90;;;;;;4936276;29;20047;-69
2021/04/29 11:02:35;;;;;;;10.63;6.97;;;17.40;99.90;;;;;;4934964;29;20031;-68
2021/04/29 11:05:06;;;;;;;10.98;6.20;;;17.40;99.90;;;;;;4936546;29;20497;-68
2021/04/29 11:07:44;;;;;;;11.10;8.02;;;17.40;99.90;;;;;;4936470;29;20043;-68
2021/04/29 11:10:12;;;;;;;16.67;11.80;;;17.40;99.90;;;;;;4940521;29;20035;-68
2021/04/29 11:12:55;;;;;;;19.58;13.38;;;17.40;99.90;;;;;;4935564;29;20077;-68
2021/04/29 11:15:31;;;;;;;19.30;13.07;;;17.40;99.90;;;;;;4936071;29;20047;-68
2021/04/29 11:18:11;;;;;;;19.63;14.05;;;17.20;99.90;;;;;;4935989;29;20110;-68
2021/04/29 11:20:57;;;;;;;19.35;13.50;;;17.20;99.90;;;;;;4935939;29;20036;-68
2021/04/29 11:23:45;;;;;;;20.52;13.25;;;17.20;99.90;;;;;;4916744;29;20084;-68
2021/04/29 11:26:19;;;;;;;16.65;12.25;;;17.20;99.90;;;;;;4928654;29;20047;-68
2021/04/29 11:28:49;;;;;;;16.48;9.85;;;17.20;99.90;;;;;;4935456;29;20115;-68
2021/04/29 11:31:18;;;;;;;16.65;9.13;;;17.20;99.90;;;;;;4935062;29;20107;-68
2021/04/29 11:33:49;;;;;;;10.50;7.03;;;17.20;99.90;;;;;;4935875;29;20043;-68
2021/04/29 11:36:17;;;;;;;12.70;6.78;;;17.20;99.90;;;;;;4925670;29;20047;-68
2021/04/29 11:38:56;;;;;;;11.60;7.03;;;17.20;99.90;;;;;;4935213;29;20063;-68
2021/04/29 11:41:25;;;;;;;7.18;5.63;;;17.10;99.90;;;;;;4935959;29;20047;-68
2021/04/29 11:44:11;;;;;;;9.15;6.00;;;17.10;99.90;;;;;;4934586;29;20028;-67
2021/04/29 11:46:38;;;;;;;13.45;6.22;;;17.20;99.90;;;;;;4929021;29;20054;-68
2021/04/29 11:49:08;;;;;;;8.70;5.38;;;17.20;99.90;;;;;;4926047;29;20039;-68
2021/04/29 11:51:47;;;;;;;7.20;4.40;;;17.30;99.90;;;;;;4929574;29;20506;-68
2021/04/29 11:54:17;;;;;;;10.32;4.53;;;17.20;99.90;;;;;;4930204;29;20043;-68
2021/04/29 11:56:56;;;;;;;9.07;4.85;;;17.10;99.90;;;;;;4930162;29;20396;-68
2021/04/29 11:59:31;;;;;;;7.97;4.13;;;17.20;99.90;;;;;;4924692;29;20055;-68
2021/04/29 12:02:01;;;;;;;7.88;4.30;;;17.20;99.90;;;;;;4926329;29;20032;-68
2021/04/29 12:04:29;;;;;;;8.55;5.13;;;17.20;99.90;;;;;;4925962;29;20047;-68
2021/04/29 12:07:02;;;;;;;14.40;5.82;;;17.10;99.90;;;;;;4933917;29;20518;-68
2021/04/29 12:09:30;;;;;;;9.82;5.07;;;17.00;99.90;;;;;;4930311;29;20046;-68
2021/04/29 12:12:10;;;;;;;12.90;5.65;;;16.90;99.90;;;;;;4916360;29;20031;-68
2021/04/29 12:14:38;;;;;;;11.23;5.95;;;16.90;99.90;;;;;;4930419;29;20561;-68
2021/04/29 12:17:06;;;;;;;8.45;5.20;;;16.70;99.90;;;;;;4933274;29;20163;-68
2021/04/29 12:19:34;;;;;;;12.45;5.70;;;16.60;99.90;;;;;;4926031;29;20066;-67
2021/04/29 12:22:03;;;;;;;6.90;4.80;;;16.60;99.90;;;;;;4934869;29;20040;-68
2021/04/29 12:24:44;;;;;;;7.65;5.35;;;16.60;99.90;;;;;;4916329;29;20036;-68
2021/04/29 12:27:16;;;;;;;10.68;5.85;;;16.50;99.90;;;;;;4933979;29;20032;-68
2021/04/29 12:29:44;;;;;;;7.95;6.05;;;16.50;99.90;;;;;;4930581;29;20119;-68
2021/04/29 12:32:12;;;;;;;12.20;6.47;;;16.40;99.90;;;;;;4916108;29;20397;-68
2021/04/29 12:34:44;;;;;;;10.02;6.50;;;16.30;99.90;;;;;;4915777;29;20143;-68
2021/04/29 12:37:13;;;;;;;8.52;6.55;;;16.30;99.90;;;;;;4934617;29;20032;-68
2021/04/29 12:39:43;;;;;;;12.38;7.50;;;16.30;99.90;;;;;;4931599;29;20032;-67
2021/04/29 12:42:16;;;;;;;13.23;6.88;;;16.40;99.90;;;;;;4917407;29;20047;-67
2021/04/29 12:44:50;;;;;;;10.30;7.10;;;16.30;99.90;;;;;;4932661;29;20043;-68
2021/04/29 12:47:23;;;;;;;;;;;16.30;99.90;;;;;;4916609;29;20047;-68
2021/04/29 12:50:05;;;;;;;10.98;7.40;;;16.20;99.90;;;;;;4931596;29;20063;-68
2021/04/29 12:52:33;;;;;;;16.33;8.48;;;16.20;99.90;;;;;;4933999;29;20493;-68
2021/04/29 12:55:14;;;;;;;13.07;7.55;;;16.20;99.90;;;;;;4916709;29;20035;-68
2021/04/29 12:57:42;;;;;;;13.65;8.93;;;16.10;99.90;;;;;;4933924;29;20055;-68